createdAt,value
2023-04-01T00:01:48.833Z,10.80
2023-04-01T00:04:16.877Z,10.80
2023-04-01T00:06:43.951Z,10.80
2023-04-01T00:09:10.942Z,10.70
2023-04-01T00:11:37.931Z,10.70
2023-04-01T00:14:05.472Z,10.60
2023-04-01T00:16:32.417Z,10.60
2023-04-01T00:18:59.440Z,10.60
2023-04-01T00:21:26.348Z,10.60
2023-04-01T00:23:53.350Z,10.60
2023-04-01T00:26:22.265Z,10.60
2023-04-01T00:28:50.007Z,10.50
2023-04-01T00:31:16.923Z,10.50
2023-04-01T00:33:43.962Z,10.50
2023-04-01T00:36:16.159Z,10.50
2023-04-01T00:38:43.945Z,10.50
2023-04-01T00:41:15.936Z,10.50
2023-04-01T00:43:45.675Z,10.50
2023-04-01T00:46:12.858Z,10.50
2023-04-01T00:48:43.140Z,10.50
2023-04-01T00:51:21.341Z,10.50
2023-04-01T00:53:53.968Z,10.40
2023-04-01T00:56:32.996Z,10.30
2023-04-01T00:59:09.396Z,10.30
2023-04-01T01:01:37.092Z,10.20
2023-04-01T01:04:04.750Z,10.10
2023-04-01T01:06:51.710Z,10.20
2023-04-01T01:09:34.346Z,10.10
2023-04-01T01:12:19.872Z,10.20
2023-04-01T01:14:51.333Z,10.20
2023-04-01T01:17:33.611Z,10.30
2023-04-01T01:20:25.985Z,10.30
2023-04-01T01:23:34.330Z,10.20
2023-04-01T01:26:27.501Z,10.20
2023-04-01T01:29:31.714Z,10.20
2023-04-01T01:32:28.402Z,10.10
2023-04-01T01:34:55.498Z,10.10
2023-04-01T01:37:26.215Z,10.10
2023-04-01T01:40:01.212Z,10.10
2023-04-01T01:42:31.217Z,10.00
2023-04-01T01:45:00.838Z,10.00
2023-04-01T01:47:30.673Z,10.00
2023-04-01T01:49:58.342Z,10.10
2023-04-01T01:52:25.674Z,10.10
2023-04-01T01:54:57.617Z,10.10
2023-04-01T01:57:37.562Z,10.10
2023-04-01T02:00:14.686Z,10.10
2023-04-01T02:02:48.678Z,10.20
2023-04-01T02:05:24.316Z,10.20
2023-04-01T02:08:01.624Z,10.20
2023-04-01T02:10:32.260Z,10.20
2023-04-01T02:13:04.407Z,10.20
2023-04-01T02:15:38.744Z,10.20
2023-04-01T02:18:06.280Z,10.20
2023-04-01T02:20:33.682Z,10.20
2023-04-01T02:23:01.262Z,10.10
2023-04-01T02:25:36.581Z,10.20
2023-04-01T02:28:07.561Z,10.20
2023-04-01T02:30:37.964Z,10.20
2023-04-01T02:33:06.555Z,10.20
2023-04-01T02:35:36.676Z,10.20
2023-04-01T02:38:04.570Z,10.20
2023-04-01T02:40:41.492Z,10.20
2023-04-01T02:43:08.405Z,10.10
2023-04-01T02:45:35.389Z,10.10
2023-04-01T02:48:02.396Z,10.10
2023-04-01T02:50:29.428Z,10.10
2023-04-01T02:52:57.196Z,10.10
2023-04-01T02:55:24.114Z,10.10
2023-04-01T02:57:50.985Z,10.10
2023-04-01T03:00:18.522Z,10.00
2023-04-01T03:02:45.912Z,10.00
2023-04-01T03:05:13.833Z,10.00
2023-04-01T03:07:41.030Z,10.00
2023-04-01T03:10:08.966Z,10.10
2023-04-01T03:12:35.974Z,10.00
2023-04-01T03:15:11.117Z,10.00
2023-04-01T03:17:39.861Z,10.00
2023-04-01T03:20:09.559Z,10.00
2023-04-01T03:22:36.752Z,9.90
2023-04-01T03:25:05.252Z,9.90
2023-04-01T03:27:32.119Z,9.90
2023-04-01T03:29:59.062Z,9.90
2023-04-01T03:32:26.303Z,9.90
2023-04-01T03:34:53.182Z,9.90
2023-04-01T03:37:20.580Z,9.80
2023-04-01T03:39:47.477Z,9.70
2023-04-01T03:42:14.403Z,9.60
2023-04-01T03:44:41.286Z,9.60
2023-04-01T03:47:10.177Z,9.50
2023-04-01T03:49:37.180Z,9.50
2023-04-01T03:52:04.302Z,9.50
2023-04-01T03:54:31.253Z,9.50
2023-04-01T03:56:59.133Z,9.40
2023-04-01T03:59:26.147Z,9.40
2023-04-01T04:01:53.010Z,9.40
2023-04-01T04:04:20.030Z,9.40
2023-04-01T04:06:46.961Z,9.40
2023-04-01T04:09:13.867Z,9.40
2023-04-01T04:11:40.738Z,9.30
2023-04-01T04:14:07.627Z,9.30
2023-04-01T04:16:37.671Z,9.40
2023-04-01T04:19:05.213Z,9.40
2023-04-01T04:21:32.206Z,9.30
2023-04-01T04:24:01.187Z,9.30
2023-04-01T04:26:28.503Z,9.20
2023-04-01T04:28:56.557Z,9.20
2023-04-01T04:31:24.694Z,9.10
2023-04-01T04:33:52.548Z,9.20
2023-04-01T04:36:20.439Z,9.20
2023-04-01T04:38:47.695Z,9.20
2023-04-01T04:41:16.482Z,9.10
2023-04-01T04:43:49.252Z,9.10
2023-04-01T04:46:16.223Z,9.10
2023-04-01T04:48:44.867Z,9.10
2023-04-01T04:51:18.168Z,9.00
2023-04-01T04:53:45.650Z,9.00
2023-04-01T04:56:13.539Z,9.00
2023-04-01T04:58:41.117Z,9.00
2023-04-01T05:01:18.109Z,9.10
2023-04-01T05:03:46.296Z,9.10
2023-04-01T05:06:15.175Z,9.20
2023-04-01T05:08:43.818Z,9.20
2023-04-01T05:11:14.473Z,9.30
2023-04-01T05:13:42.611Z,9.40
2023-04-01T05:16:11.343Z,9.40
2023-04-01T05:18:38.372Z,9.40
2023-04-01T05:21:05.456Z,9.40
2023-04-01T05:23:33.896Z,9.50
2023-04-01T05:26:05.338Z,9.50
2023-04-01T05:28:32.227Z,9.60
2023-04-01T05:31:03.404Z,9.70
2023-04-01T05:33:31.375Z,9.80
2023-04-01T05:36:11.299Z,9.90
2023-04-01T05:38:38.776Z,10.00
2023-04-01T05:41:06.072Z,10.00
2023-04-01T05:43:36.437Z,10.10
2023-04-01T05:46:03.507Z,10.30
2023-04-01T05:48:30.509Z,10.40
2023-04-01T05:50:57.404Z,10.70
2023-04-01T05:53:24.395Z,11.00
2023-04-01T05:55:51.289Z,11.30
2023-04-01T05:58:18.148Z,11.70
2023-04-01T06:00:46.574Z,12.00
2023-04-01T06:03:13.846Z,12.30
2023-04-01T06:05:45.036Z,12.50
2023-04-01T06:08:20.328Z,12.60
2023-04-01T06:11:11.449Z,12.60
2023-04-01T06:14:12.638Z,12.60
2023-04-01T06:17:02.872Z,12.70
2023-04-01T06:19:35.696Z,12.70
2023-04-01T06:22:21.421Z,12.80
2023-04-01T06:24:51.199Z,12.90
2023-04-01T06:27:27.002Z,13.00
2023-04-01T06:30:25.788Z,13.00
2023-04-01T06:33:31.320Z,13.00
2023-04-01T06:36:16.475Z,13.00
2023-04-01T06:38:49.121Z,12.90
2023-04-01T06:41:28.056Z,13.00
2023-04-01T06:44:09.673Z,13.10
2023-04-01T06:47:00.199Z,13.20
2023-04-01T06:49:40.083Z,13.40
2023-04-01T06:53:08.378Z,13.50
2023-04-01T06:55:38.931Z,13.90
2023-04-01T06:58:12.540Z,14.00
2023-04-01T07:00:46.853Z,14.10
2023-04-01T07:03:27.455Z,14.40
2023-04-01T07:05:57.248Z,14.60
2023-04-01T07:08:27.963Z,14.70
2023-04-01T07:10:59.578Z,14.90
2023-04-01T07:13:42.479Z,15.10
2023-04-01T07:16:32.269Z,15.30
2023-04-01T07:19:18.926Z,15.40
2023-04-01T07:21:57.988Z,15.60
2023-04-01T07:24:35.781Z,15.80
2023-04-01T07:27:02.701Z,16.00
2023-04-01T07:29:29.665Z,16.00
2023-04-01T07:32:17.542Z,16.10
2023-04-01T07:34:44.502Z,16.30
2023-04-01T07:37:50.192Z,16.50
2023-04-01T07:40:22.934Z,16.90
2023-04-01T07:43:23.650Z,17.10
2023-04-01T07:46:05.587Z,17.40
2023-04-01T07:48:38.765Z,17.50
2023-04-01T07:51:11.326Z,17.60
2023-04-01T07:54:03.616Z,17.60
2023-04-01T07:56:40.694Z,17.70
2023-04-01T07:59:21.176Z,17.90
2023-04-01T08:02:27.345Z,18.00
2023-04-01T08:05:24.381Z,17.90
2023-04-01T08:07:54.388Z,17.70
2023-04-01T08:10:34.702Z,17.90
2023-04-01T08:13:23.961Z,18.10
2023-04-01T08:16:15.571Z,18.30
2023-04-01T08:19:11.345Z,18.70
2023-04-01T08:21:48.946Z,18.90
2023-04-01T08:24:22.808Z,19.00
2023-04-01T08:26:56.457Z,18.90
2023-04-01T08:29:32.229Z,19.10
2023-04-01T08:32:12.198Z,19.20
2023-04-01T08:34:42.821Z,19.30
2023-04-01T08:37:15.539Z,19.30
2023-04-01T08:39:59.478Z,18.90
2023-04-01T08:42:52.669Z,18.50
2023-04-01T08:45:44.029Z,18.10
2023-04-01T08:48:20.605Z,17.80
2023-04-01T08:50:50.556Z,17.60
2023-04-01T08:53:55.977Z,17.50
2023-04-01T08:56:31.849Z,17.10
2023-04-01T08:59:16.815Z,16.80
2023-04-01T09:02:05.914Z,16.70
2023-04-01T09:05:06.376Z,16.90
2023-04-01T09:07:52.913Z,17.10
2023-04-01T09:10:36.539Z,17.10
2023-04-01T09:13:12.454Z,17.10
2023-04-01T09:16:05.788Z,17.00
2023-04-01T09:18:47.329Z,17.20
2023-04-01T09:21:17.226Z,17.60
2023-04-01T09:24:11.463Z,17.80
2023-04-01T09:26:59.579Z,17.70
2023-04-01T09:30:18.449Z,17.70
2023-04-01T09:32:54.526Z,17.50
2023-04-01T09:35:32.094Z,17.30
2023-04-01T09:38:40.182Z,17.50
2023-04-01T09:41:30.106Z,17.80
2023-04-01T09:44:21.200Z,17.80
2023-04-01T09:46:54.349Z,17.60
2023-04-01T09:49:30.514Z,17.50
2023-04-01T09:52:09.416Z,17.40
2023-04-01T09:55:08.744Z,17.30
2023-04-01T09:57:56.602Z,16.90
2023-04-01T10:00:29.190Z,16.70
2023-04-01T10:03:14.855Z,16.40
2023-04-01T10:06:18.237Z,16.30
2023-04-01T10:09:11.625Z,16.10
2023-04-01T10:11:53.179Z,16.00
2023-04-01T10:14:57.460Z,16.00
2023-04-01T10:17:39.243Z,16.20
2023-04-01T10:20:47.364Z,16.30
2023-04-01T10:23:19.692Z,16.60
2023-04-01T10:26:09.858Z,16.70
2023-04-01T10:28:36.918Z,16.70
2023-04-01T10:31:41.634Z,16.80
2023-04-01T10:34:36.009Z,16.70
2023-04-01T10:37:27.888Z,16.50
2023-04-01T10:40:23.720Z,16.50
2023-04-01T10:43:12.249Z,16.30
2023-04-01T10:45:54.458Z,16.20
2023-04-01T10:49:05.710Z,16.00
2023-04-01T10:51:54.318Z,15.80
2023-04-01T10:54:50.914Z,15.60
2023-04-01T10:57:35.963Z,15.40
2023-04-01T11:00:24.522Z,15.30
2023-04-01T11:03:13.262Z,15.20
2023-04-01T11:05:58.827Z,15.20
2023-04-01T11:08:49.634Z,15.20
2023-04-01T11:11:51.624Z,15.20
2023-04-01T11:14:55.635Z,15.20
2023-04-01T11:17:38.028Z,15.30
2023-04-01T11:20:46.378Z,15.40
2023-04-01T11:23:36.372Z,15.60
2023-04-01T11:26:27.783Z,15.90
2023-04-01T11:29:33.804Z,16.10
2023-04-01T11:32:34.867Z,16.40
2023-04-01T11:35:09.846Z,16.40
2023-04-01T11:37:42.485Z,16.40
2023-04-01T11:40:24.650Z,16.30
2023-04-01T11:43:30.375Z,16.20
2023-04-01T11:46:12.161Z,16.10
2023-04-01T11:48:54.296Z,16.00
2023-04-01T11:52:01.326Z,15.80
2023-04-01T11:54:34.313Z,15.70
2023-04-01T11:57:12.351Z,15.50
2023-04-01T11:59:58.320Z,15.40
2023-04-01T12:02:44.216Z,15.30
2023-04-01T12:05:20.034Z,15.20
2023-04-01T12:08:20.624Z,15.10
2023-04-01T12:11:05.838Z,15.10
2023-04-01T12:13:38.438Z,15.10
2023-04-01T12:16:30.188Z,15.10
2023-04-01T12:19:01.132Z,15.10
2023-04-01T12:21:33.945Z,15.20
2023-04-01T12:24:15.896Z,15.30
2023-04-01T12:26:45.730Z,15.40
2023-04-01T12:29:13.731Z,15.60
2023-04-01T12:31:54.713Z,15.60
2023-04-01T12:34:42.789Z,15.70
2023-04-01T12:37:43.010Z,15.80
2023-04-01T12:40:40.963Z,16.10
2023-04-01T12:43:26.471Z,16.20
2023-04-01T12:45:56.564Z,16.20
2023-04-01T12:48:29.289Z,16.20
2023-04-01T12:51:28.947Z,16.30
2023-04-01T12:54:20.190Z,16.30
2023-04-01T12:57:31.827Z,16.40
2023-04-01T13:00:10.755Z,16.40
2023-04-01T13:02:49.642Z,16.30
2023-04-01T13:05:32.229Z,16.40
2023-04-01T13:08:14.241Z,16.60
2023-04-01T13:10:59.959Z,16.80
2023-04-01T13:13:44.615Z,16.90
2023-04-01T13:16:23.442Z,17.00
2023-04-01T13:18:59.738Z,17.00
2023-04-01T13:21:45.582Z,17.00
2023-04-01T13:24:45.479Z,17.10
2023-04-01T13:27:18.139Z,17.30
2023-04-01T13:30:08.005Z,17.40
2023-04-01T13:33:13.458Z,17.50
2023-04-01T13:36:06.461Z,17.50
2023-04-01T13:39:03.884Z,17.60
2023-04-01T13:41:43.064Z,17.60
2023-04-01T13:44:18.881Z,17.60
2023-04-01T13:47:02.696Z,17.60
2023-04-01T13:49:42.404Z,17.60
2023-04-01T13:52:39.870Z,17.60
2023-04-01T13:55:36.195Z,17.70
2023-04-01T13:58:24.967Z,17.80
2023-04-01T14:01:22.885Z,17.80
2023-04-01T14:04:05.071Z,17.80
2023-04-01T14:06:50.866Z,17.70
2023-04-01T14:09:27.633Z,17.60
2023-04-01T14:12:20.401Z,17.50
2023-04-01T14:15:17.012Z,17.40
2023-04-01T14:17:47.531Z,17.30
2023-04-01T14:20:39.154Z,17.20
2023-04-01T14:23:24.627Z,17.30
2023-04-01T14:26:06.618Z,17.30
2023-04-01T14:28:48.206Z,17.30
2023-04-01T14:31:27.404Z,17.40
2023-04-01T14:34:24.257Z,17.40
2023-04-01T14:37:04.898Z,17.50
2023-04-01T14:39:50.744Z,17.50
2023-04-01T14:42:29.686Z,17.50
2023-04-01T14:45:15.496Z,17.40
2023-04-01T14:47:51.524Z,17.70
2023-04-01T14:50:25.263Z,17.50
2023-04-01T14:53:01.139Z,17.20
2023-04-01T14:56:00.541Z,17.10
2023-04-01T14:58:46.973Z,16.90
2023-04-01T15:01:43.582Z,16.80
2023-04-01T15:04:45.481Z,16.70
2023-04-01T15:07:40.038Z,16.60
2023-04-01T15:10:48.329Z,16.60
2023-04-01T15:13:33.290Z,16.60
2023-04-01T15:16:09.534Z,16.70
2023-04-01T15:18:50.751Z,16.80
2023-04-01T15:21:48.785Z,16.80
2023-04-01T15:24:30.494Z,16.80
2023-04-01T15:27:22.704Z,16.80
2023-04-01T15:30:16.215Z,16.80
2023-04-01T15:33:19.623Z,16.50
2023-04-01T15:36:25.200Z,16.40
2023-04-01T15:39:36.547Z,16.30
2023-04-01T15:42:15.032Z,16.20
2023-04-01T15:44:44.988Z,16.10
2023-04-01T15:47:53.190Z,16.00
2023-04-01T15:50:32.670Z,15.90
2023-04-01T15:53:18.371Z,15.70
2023-04-01T15:55:45.579Z,15.70
2023-04-01T15:58:41.503Z,15.70
2023-04-01T16:01:41.678Z,15.60
2023-04-01T16:04:40.293Z,15.60
2023-04-01T16:07:37.885Z,15.70
2023-04-01T16:10:18.596Z,15.60
2023-04-01T16:13:18.747Z,15.50
2023-04-01T16:16:10.406Z,15.40
2023-04-01T16:18:49.725Z,15.40
2023-04-01T16:21:43.308Z,15.40
2023-04-01T16:24:19.493Z,15.30
2023-04-01T16:27:18.690Z,15.30
2023-04-01T16:29:50.500Z,15.20
2023-04-01T16:32:36.964Z,15.30
2023-04-01T16:35:37.920Z,15.30
2023-04-01T16:38:31.052Z,15.30
2023-04-01T16:41:17.355Z,15.30
2023-04-01T16:43:52.880Z,15.30
2023-04-01T16:46:31.667Z,15.30
2023-04-01T16:49:39.080Z,15.40
2023-04-01T16:52:16.774Z,15.30
2023-04-01T16:54:55.568Z,15.30
2023-04-01T16:57:32.606Z,15.20
2023-04-01T17:00:22.957Z,15.10
2023-04-01T17:03:18.587Z,15.00
2023-04-01T17:06:00.486Z,14.90
2023-04-01T17:08:57.093Z,14.80
2023-04-01T17:11:31.155Z,14.70
2023-04-01T17:14:25.359Z,14.60
2023-04-01T17:17:14.114Z,14.50
2023-04-01T17:19:48.036Z,14.50
2023-04-01T17:22:30.729Z,14.40
2023-04-01T17:25:26.336Z,14.40
2023-04-01T17:28:12.653Z,14.30
2023-04-01T17:30:58.963Z,14.30
2023-04-01T17:33:57.267Z,14.20
2023-04-01T17:36:43.565Z,14.20
2023-04-01T17:39:17.168Z,14.10
2023-04-01T17:41:56.472Z,14.10
2023-04-01T17:44:51.542Z,14.00
2023-04-01T17:47:56.461Z,14.00
2023-04-01T17:50:37.466Z,14.00
2023-04-01T17:53:34.222Z,13.90
2023-04-01T17:56:13.644Z,13.90
2023-04-01T17:58:48.390Z,13.80
2023-04-01T18:01:53.349Z,13.80
2023-04-01T18:04:39.846Z,13.80
2023-04-01T18:07:34.499Z,13.70
2023-04-01T18:10:25.186Z,13.70
2023-04-01T18:13:19.949Z,13.70
2023-04-01T18:16:24.505Z,13.60
2023-04-01T18:19:01.426Z,13.60
2023-04-01T18:21:49.298Z,13.60
2023-04-01T18:24:24.644Z,13.60
2023-04-01T18:27:04.540Z,13.50
2023-04-01T18:29:50.621Z,13.50
2023-04-01T18:32:36.682Z,13.40
2023-04-01T18:35:40.959Z,13.40
2023-04-01T18:38:25.975Z,13.40
2023-04-01T18:40:57.193Z,13.40
2023-04-01T18:43:48.687Z,13.30
2023-04-01T18:46:26.218Z,13.30
2023-04-01T18:49:06.706Z,13.20
2023-04-01T18:51:49.393Z,13.20
2023-04-01T18:54:55.767Z,13.10
2023-04-01T18:57:23.315Z,13.10
2023-04-01T19:00:17.244Z,13.00
2023-04-01T19:02:54.619Z,13.00
2023-04-01T19:05:36.184Z,13.00
2023-04-01T19:08:38.019Z,13.00
2023-04-01T19:11:05.359Z,12.90
2023-04-01T19:13:44.522Z,12.80
2023-04-01T19:16:48.168Z,12.80
2023-04-01T19:19:34.397Z,12.70
2023-04-01T19:22:31.281Z,12.60
2023-04-01T19:25:07.961Z,12.60
2023-04-01T19:27:48.442Z,12.60
2023-04-01T19:30:26.130Z,12.60
2023-04-01T19:33:20.881Z,12.50
2023-04-01T19:36:17.947Z,12.50
2023-04-01T19:38:59.943Z,12.50
2023-04-01T19:41:56.977Z,12.40
2023-04-01T19:44:50.638Z,12.30
2023-04-01T19:47:37.277Z,12.20
2023-04-01T19:50:36.635Z,12.10
2023-04-01T19:53:25.527Z,12.00
2023-04-01T19:56:17.935Z,11.80
2023-04-01T19:59:10.379Z,11.80
2023-04-01T20:01:47.032Z,11.70
2023-04-01T20:04:50.946Z,11.60
2023-04-01T20:07:25.798Z,11.50
2023-04-01T20:10:04.757Z,11.40
2023-04-01T20:12:45.762Z,11.40
2023-04-01T20:15:24.060Z,11.30
2023-04-01T20:17:55.553Z,11.30
2023-04-01T20:20:27.917Z,11.20
2023-04-01T20:23:32.864Z,11.10
2023-04-01T20:26:15.099Z,11.10
2023-04-01T20:28:45.589Z,11.00
2023-04-01T20:31:27.607Z,11.00
2023-04-01T20:34:19.316Z,10.90
2023-04-01T20:37:17.713Z,10.80
2023-04-01T20:40:07.346Z,10.70
2023-04-01T20:42:40.452Z,10.60
2023-04-01T20:45:29.784Z,10.60
2023-04-01T20:48:20.248Z,10.60
2023-04-01T20:51:00.619Z,10.50
2023-04-01T20:53:38.281Z,10.40
2023-04-01T20:56:17.082Z,10.40
2023-04-01T20:59:03.841Z,10.30
2023-04-01T21:01:46.218Z,10.20
2023-04-01T21:04:43.929Z,10.10
2023-04-01T21:07:34.605Z,10.10
2023-04-01T21:10:14.725Z,10.10
2023-04-01T21:12:44.761Z,10.00
2023-04-01T21:15:22.958Z,9.90
2023-04-01T21:18:18.976Z,9.80
2023-04-01T21:20:58.259Z,9.80
2023-04-01T21:23:59.395Z,9.70
2023-04-01T21:26:54.465Z,9.70
2023-04-01T21:29:48.799Z,9.70
2023-04-01T21:32:37.401Z,9.70
2023-04-01T21:35:22.654Z,9.50
2023-04-01T21:38:17.270Z,9.50
2023-04-01T21:41:16.653Z,9.50
2023-04-01T21:43:49.447Z,9.40
2023-04-01T21:46:34.618Z,9.40
2023-04-01T21:49:20.081Z,9.40
2023-04-01T21:52:05.271Z,9.40
2023-04-01T21:54:53.136Z,9.30
2023-04-01T21:57:44.346Z,9.30
2023-04-01T22:00:17.548Z,9.20
2023-04-01T22:03:26.006Z,9.10
2023-04-01T22:05:58.333Z,9.10
2023-04-01T22:08:31.571Z,9.10
2023-04-01T22:11:06.331Z,9.00
2023-04-01T22:14:03.134Z,9.00
2023-04-01T22:16:57.359Z,9.00
2023-04-01T22:20:24.244Z,8.90
2023-04-01T22:23:13.254Z,8.90
2023-04-01T22:25:43.721Z,8.90
2023-04-01T22:28:35.389Z,9.00
2023-04-01T22:31:04.353Z,9.20
2023-04-01T22:33:49.266Z,9.40
2023-04-01T22:36:18.985Z,9.60
2023-04-01T22:38:58.756Z,9.70
2023-04-01T22:41:27.262Z,9.90
2023-04-01T22:43:57.879Z,10.00
2023-04-01T22:46:38.718Z,10.10
2023-04-01T22:49:29.057Z,10.20
2023-04-01T22:52:21.401Z,10.30
2023-04-01T22:54:53.018Z,10.40
2023-04-01T22:57:32.249Z,10.40
2023-04-01T23:00:12.553Z,10.40
2023-04-01T23:03:04.201Z,10.40
2023-04-01T23:05:33.166Z,10.50
2023-04-01T23:08:29.115Z,10.50
2023-04-01T23:11:07.675Z,10.50
2023-04-01T23:13:53.686Z,10.50
2023-04-01T23:16:36.826Z,10.50
2023-04-01T23:19:26.137Z,10.50
2023-04-01T23:21:56.138Z,10.50
2023-04-01T23:24:37.854Z,10.40
2023-04-01T23:27:09.656Z,10.40
2023-04-01T23:29:43.993Z,10.50
2023-04-01T23:32:20.420Z,10.40
2023-04-01T23:34:59.040Z,10.50
2023-04-01T23:37:27.108Z,10.50
2023-04-01T23:39:57.595Z,10.50
2023-04-01T23:42:24.464Z,10.50
2023-04-01T23:44:57.973Z,10.40
2023-04-01T23:47:31.665Z,10.40
2023-04-01T23:50:05.041Z,10.40
2023-04-01T23:52:37.376Z,10.40
2023-04-01T23:55:28.973Z,10.40
2023-04-01T23:58:22.467Z,10.30
